createdAt,value
2018-04-14T00:00:35.117Z,19.2
2018-04-14T00:01:35.074Z,19.25
2018-04-14T00:02:34.940Z,19.27
2018-04-14T00:03:34.936Z,19.19
2018-04-14T00:04:35.109Z,19.23
2018-04-14T00:05:35.052Z,19.27
2018-04-14T00:06:35.296Z,19.19
2018-04-14T00:07:35.136Z,19.25
2018-04-14T00:08:35.081Z,19.27
2018-04-14T00:09:35.125Z,19.19
2018-04-14T00:10:35.125Z,19.23
2018-04-14T00:11:35.042Z,19.25
2018-04-14T00:12:35.091Z,19.19
2018-04-14T00:13:35.049Z,19.23
2018-04-14T00:14:35.036Z,19.29
2018-04-14T00:15:35.170Z,19.15
2018-04-14T00:16:35.027Z,19.23
2018-04-14T00:17:35.020Z,19.23
2018-04-14T00:18:35.022Z,19.15
2018-04-14T00:19:35.123Z,19.19
2018-04-14T00:20:35.283Z,19.23
2018-04-14T00:21:35.071Z,19.13
2018-04-14T00:22:34.969Z,19.19
2018-04-14T00:23:35.119Z,19.22
2018-04-14T00:24:34.976Z,19.15
2018-04-14T00:25:35.119Z,19.16
2018-04-14T00:26:35.109Z,19.23
2018-04-14T00:27:35.051Z,19.13
2018-04-14T00:28:35.226Z,19.18
2018-04-14T00:29:35.208Z,19.2
2018-04-14T00:30:34.945Z,19.12
2018-04-14T00:31:35.136Z,19.18
2018-04-14T00:32:35.224Z,19.19
2018-04-14T00:33:35.177Z,19.15
2018-04-14T00:34:35.100Z,19.2
2018-04-14T00:35:35.188Z,19.22
2018-04-14T00:36:35.339Z,19.12
2018-04-14T00:37:35.070Z,19.18
2018-04-14T00:38:35.031Z,19.2
2018-04-14T00:39:35.090Z,19.11
2018-04-14T00:40:35.048Z,19.15
2018-04-14T00:41:35.063Z,19.19
2018-04-14T00:42:35.024Z,19.11
2018-04-14T00:43:35.154Z,19.16
2018-04-14T00:44:35.005Z,19.16
2018-04-14T00:45:35.022Z,19.08
2018-04-14T00:46:34.969Z,19.12
2018-04-14T00:47:35.062Z,19.16
2018-04-14T00:48:35.009Z,19.08
2018-04-14T00:49:35.182Z,19.16
2018-04-14T00:50:35.363Z,19.16
2018-04-14T00:51:35.041Z,19.08
2018-04-14T00:52:35.005Z,19.13
2018-04-14T00:53:35.150Z,19.16
2018-04-14T00:54:37.158Z,19.06
2018-04-14T00:55:35.190Z,19.12
2018-04-14T00:56:35.290Z,19.15
2018-04-14T00:57:35.106Z,19.05
2018-04-14T00:58:35.160Z,19.09
2018-04-14T00:59:35.107Z,19.15
2018-04-14T01:00:35.063Z,19.03
2018-04-14T01:01:35.076Z,19.11
2018-04-14T01:02:35.004Z,19.16
2018-04-14T01:03:35.126Z,19.05
2018-04-14T01:04:34.994Z,19.09
2018-04-14T01:05:34.898Z,19.13
2018-04-14T01:06:35.121Z,19.05
2018-04-14T01:07:35.085Z,19.11
2018-04-14T01:08:34.951Z,19.12
2018-04-14T01:09:34.985Z,19.02
2018-04-14T01:10:35.168Z,19.06
2018-04-14T01:11:35.110Z,19.11
2018-04-14T01:12:34.907Z,19.01
2018-04-14T01:13:35.070Z,19.06
2018-04-14T01:14:35.026Z,19.12
2018-04-14T01:15:35.149Z,19.01
2018-04-14T01:16:35.129Z,19.05
2018-04-14T01:17:35.022Z,19.08
2018-04-14T01:18:35.011Z,19.01
2018-04-14T01:19:35.171Z,19.06
2018-04-14T01:20:35.116Z,19.11
2018-04-14T01:21:34.936Z,19.01
2018-04-14T01:22:34.991Z,19.05
2018-04-14T01:23:35.074Z,19.06
2018-04-14T01:24:34.957Z,19.01
2018-04-14T01:25:35.123Z,19.05
2018-04-14T01:26:35.170Z,19.06
2018-04-14T01:27:35.340Z,18.99
2018-04-14T01:28:35.016Z,19.02
2018-04-14T01:29:35.047Z,19.06
2018-04-14T01:30:34.917Z,18.98
2018-04-14T01:31:35.037Z,19.03
2018-04-14T01:32:35.141Z,19.06
2018-04-14T01:33:34.889Z,18.97
2018-04-14T01:34:35.092Z,19.01
2018-04-14T01:35:35.097Z,19.06
2018-04-14T01:36:35.023Z,18.98
2018-04-14T01:37:35.429Z,19.01
2018-04-14T01:38:35.040Z,19.05
2018-04-14T01:39:35.064Z,18.94
2018-04-14T01:40:34.981Z,18.99
2018-04-14T01:41:34.949Z,19.02
2018-04-14T01:42:35.065Z,18.95
2018-04-14T01:43:34.972Z,19.01
2018-04-14T01:44:35.133Z,19.03
2018-04-14T01:45:35.220Z,18.97
2018-04-14T01:46:35.008Z,18.98
2018-04-14T01:47:35.143Z,19.02
2018-04-14T01:48:35.130Z,18.94
2018-04-14T01:49:35.178Z,18.98
2018-04-14T01:50:34.984Z,19.01
2018-04-14T01:51:35.068Z,18.91
2018-04-14T01:52:35.160Z,18.99
2018-04-14T01:53:34.971Z,19.03
2018-04-14T01:54:34.916Z,18.94
2018-04-14T01:55:34.941Z,18.98
2018-04-14T01:56:35.157Z,19.01
2018-04-14T01:57:34.990Z,18.91
2018-04-14T01:58:35.027Z,18.98
2018-04-14T01:59:35.012Z,18.99
2018-04-14T02:00:35.025Z,18.9
2018-04-14T02:01:34.943Z,18.95
2018-04-14T02:02:34.954Z,18.97
2018-04-14T02:03:34.951Z,18.88
2018-04-14T02:04:34.898Z,18.95
2018-04-14T02:05:35.162Z,18.98
2018-04-14T02:06:35.128Z,18.88
2018-04-14T02:07:34.977Z,18.95
2018-04-14T02:08:35.074Z,18.99
2018-04-14T02:09:35.063Z,18.9
2018-04-14T02:10:35.077Z,18.94
2018-04-14T02:11:34.973Z,18.97
2018-04-14T02:12:35.079Z,18.9
2018-04-14T02:13:35.075Z,18.92
2018-04-14T02:14:35.174Z,18.97
2018-04-14T02:15:35.080Z,18.85
2018-04-14T02:16:35.166Z,18.91
2018-04-14T02:17:34.994Z,18.95
2018-04-14T02:18:34.928Z,18.87
2018-04-14T02:19:35.079Z,18.9
2018-04-14T02:20:35.176Z,18.95
2018-04-14T02:21:35.115Z,18.9
2018-04-14T02:22:35.025Z,18.92
2018-04-14T02:23:35.066Z,18.94
2018-04-14T02:24:35.205Z,18.88
2018-04-14T02:25:34.917Z,18.9
2018-04-14T02:26:35.070Z,18.94
2018-04-14T02:27:35.094Z,18.84
2018-04-14T02:28:35.137Z,18.88
2018-04-14T02:29:35.089Z,18.91
2018-04-14T02:30:34.917Z,18.84
2018-04-14T02:31:35.422Z,18.9
2018-04-14T02:32:35.479Z,18.91
2018-04-14T02:33:35.113Z,18.84
2018-04-14T02:34:35.163Z,18.9
2018-04-14T02:35:35.020Z,18.91
2018-04-14T02:36:35.071Z,18.77
2018-04-14T02:37:35.054Z,18.84
2018-04-14T02:38:35.175Z,18.9
2018-04-14T02:39:35.096Z,18.83
2018-04-14T02:40:34.922Z,18.87
2018-04-14T02:41:35.136Z,18.92
2018-04-14T02:42:35.220Z,18.83
2018-04-14T02:43:35.072Z,18.87
2018-04-14T02:44:34.938Z,18.88
2018-04-14T02:45:35.048Z,18.8
2018-04-14T02:46:35.192Z,18.85
2018-04-14T02:47:35.117Z,18.9
2018-04-14T02:48:34.962Z,18.8
2018-04-14T02:49:35.088Z,18.84
2018-04-14T02:50:35.139Z,18.9
2018-04-14T02:51:35.095Z,18.8
2018-04-14T02:52:35.118Z,18.83
2018-04-14T02:53:35.197Z,18.88
2018-04-14T02:54:35.177Z,18.78
2018-04-14T02:55:35.168Z,18.85
2018-04-14T02:56:35.096Z,18.87
2018-04-14T02:57:35.119Z,18.77
2018-04-14T02:58:35.269Z,18.83
2018-04-14T02:59:35.209Z,18.85
2018-04-14T03:00:34.913Z,18.77
2018-04-14T03:01:35.200Z,18.81
2018-04-14T03:02:34.945Z,18.85
2018-04-14T03:03:35.060Z,18.77
2018-04-14T03:04:34.920Z,18.85
2018-04-14T03:05:34.971Z,18.85
2018-04-14T03:06:35.065Z,18.77
2018-04-14T03:07:35.041Z,18.81
2018-04-14T03:08:35.084Z,18.83
2018-04-14T03:09:35.116Z,18.75
2018-04-14T03:10:35.025Z,18.81
2018-04-14T03:11:35.211Z,18.83
2018-04-14T03:12:35.176Z,18.75
2018-04-14T03:13:34.959Z,18.81
2018-04-14T03:14:34.921Z,18.83
2018-04-14T03:15:34.997Z,18.78
2018-04-14T03:16:35.092Z,18.8
2018-04-14T03:17:34.953Z,18.81
2018-04-14T03:18:35.261Z,18.73
2018-04-14T03:19:35.097Z,18.8
2018-04-14T03:20:35.232Z,18.78
2018-04-14T03:21:35.161Z,18.73
2018-04-14T03:22:34.944Z,18.78
2018-04-14T03:23:35.000Z,18.81
2018-04-14T03:24:35.148Z,18.73
2018-04-14T03:25:35.161Z,18.75
2018-04-14T03:26:34.911Z,18.78
2018-04-14T03:27:35.099Z,18.71
2018-04-14T03:28:34.930Z,18.75
2018-04-14T03:29:35.059Z,18.8
2018-04-14T03:30:35.044Z,18.71
2018-04-14T03:31:35.151Z,18.75
2018-04-14T03:32:34.998Z,18.78
2018-04-14T03:33:35.084Z,18.7
2018-04-14T03:34:34.979Z,18.77
2018-04-14T03:35:34.965Z,18.78
2018-04-14T03:36:34.939Z,18.71
2018-04-14T03:37:34.998Z,18.74
2018-04-14T03:38:35.020Z,18.78
2018-04-14T03:39:34.980Z,18.71
2018-04-14T03:40:35.395Z,18.77
2018-04-14T03:41:35.066Z,18.78
2018-04-14T03:42:34.874Z,18.71
2018-04-14T03:43:34.998Z,18.74
2018-04-14T03:44:34.970Z,18.77
2018-04-14T03:45:34.947Z,18.7
2018-04-14T03:46:35.006Z,18.77
2018-04-14T03:47:35.011Z,18.77
2018-04-14T03:48:35.199Z,18.68
2018-04-14T03:49:35.084Z,18.73
2018-04-14T03:50:34.900Z,18.77
2018-04-14T03:51:34.968Z,18.68
2018-04-14T03:52:34.967Z,18.74
2018-04-14T03:53:35.045Z,18.77
2018-04-14T03:54:34.967Z,18.68
2018-04-14T03:55:35.157Z,18.75
2018-04-14T03:56:34.904Z,18.78
2018-04-14T03:57:35.009Z,18.71
2018-04-14T03:58:35.060Z,18.75
2018-04-14T03:59:34.977Z,18.78
2018-04-14T04:00:35.037Z,18.73
2018-04-14T04:01:35.075Z,18.78
2018-04-14T04:02:35.009Z,18.8
2018-04-14T04:03:35.092Z,18.7
2018-04-14T04:04:34.955Z,18.73
2018-04-14T04:05:35.015Z,18.78
2018-04-14T04:06:35.118Z,18.73
2018-04-14T04:07:35.072Z,18.77
2018-04-14T04:08:34.970Z,18.8
2018-04-14T04:09:35.040Z,18.75
2018-04-14T04:10:34.887Z,18.8
2018-04-14T04:11:35.143Z,18.85
2018-04-14T04:12:34.985Z,18.85
2018-04-14T04:13:35.026Z,18.87
2018-04-14T04:14:34.960Z,18.9
2018-04-14T04:15:35.004Z,18.9
2018-04-14T04:16:35.066Z,18.95
2018-04-14T04:17:35.075Z,18.94
2018-04-14T04:18:35.045Z,18.97
2018-04-14T04:19:34.870Z,18.99
2018-04-14T04:20:35.029Z,18.98
2018-04-14T04:21:34.961Z,18.99
2018-04-14T04:22:35.040Z,19.02
2018-04-14T04:23:35.051Z,19.03
2018-04-14T04:24:36.384Z,19.03
2018-04-14T04:25:34.948Z,19.08
2018-04-14T04:26:35.040Z,19.09
2018-04-14T04:27:35.200Z,19.09
2018-04-14T04:28:35.091Z,19.15
2018-04-14T04:29:34.992Z,19.15
2018-04-14T04:30:34.995Z,19.13
2018-04-14T04:31:34.854Z,19.16
2018-04-14T04:32:35.039Z,19.19
2018-04-14T04:33:35.012Z,19.18
2018-04-14T04:34:35.003Z,19.22
2018-04-14T04:35:35.136Z,19.23
2018-04-14T04:36:35.051Z,19.25
2018-04-14T04:37:35.249Z,19.26
2018-04-14T04:38:34.863Z,19.29
2018-04-14T04:39:35.089Z,19.26
2018-04-14T04:40:35.014Z,19.3
2018-04-14T04:41:34.964Z,19.32
2018-04-14T04:42:34.966Z,19.32
2018-04-14T04:43:35.018Z,19.35
2018-04-14T04:44:35.087Z,19.37
2018-04-14T04:45:34.904Z,19.36
2018-04-14T04:46:35.180Z,19.37
2018-04-14T04:47:34.991Z,19.42
2018-04-14T04:48:35.044Z,19.42
2018-04-14T04:49:34.996Z,19.47
2018-04-14T04:50:34.954Z,19.46
2018-04-14T04:51:35.070Z,19.45
2018-04-14T04:52:34.838Z,19.49
2018-04-14T04:53:35.154Z,19.52
2018-04-14T04:54:34.908Z,19.5
2018-04-14T04:55:34.963Z,19.53
2018-04-14T04:56:35.194Z,19.57
2018-04-14T04:57:35.113Z,19.56
2018-04-14T04:58:35.615Z,19.6
2018-04-14T04:59:35.037Z,19.61
2018-04-14T05:00:34.903Z,19.58
2018-04-14T05:01:35.090Z,19.61
2018-04-14T05:02:34.961Z,19.61
2018-04-14T05:03:34.994Z,19.58
2018-04-14T05:04:35.049Z,19.65
2018-04-14T05:05:35.109Z,19.63
2018-04-14T05:06:34.874Z,19.64
2018-04-14T05:07:34.978Z,19.63
2018-04-14T05:08:34.986Z,19.64
2018-04-14T05:09:34.947Z,19.64
2018-04-14T05:10:35.037Z,19.68
2018-04-14T05:11:35.016Z,19.71
2018-04-14T05:12:35.019Z,19.65
2018-04-14T05:13:35.072Z,19.68
2018-04-14T05:14:34.876Z,19.7
2018-04-14T05:15:34.966Z,19.7
2018-04-14T05:16:34.919Z,19.7
2018-04-14T05:17:34.858Z,19.73
2018-04-14T05:18:34.925Z,19.71
2018-04-14T05:19:34.869Z,19.75
2018-04-14T05:20:34.895Z,19.75
2018-04-14T05:21:34.894Z,19.73
2018-04-14T05:22:34.968Z,19.75
2018-04-14T05:23:35.159Z,19.78
2018-04-14T05:24:35.045Z,19.75
2018-04-14T05:25:35.022Z,19.77
2018-04-14T05:26:35.157Z,19.8
2018-04-14T05:27:35.032Z,19.8
2018-04-14T05:28:34.836Z,19.84
2018-04-14T05:29:35.147Z,19.82
2018-04-14T05:30:35.011Z,19.84
2018-04-14T05:31:34.941Z,19.86
2018-04-14T05:32:35.126Z,19.86
2018-04-14T05:33:34.960Z,19.84
2018-04-14T05:34:34.914Z,19.85
2018-04-14T05:35:34.923Z,19.89
2018-04-14T05:36:34.920Z,19.88
2018-04-14T05:37:35.578Z,19.89
2018-04-14T05:38:35.105Z,19.91
2018-04-14T05:39:34.837Z,19.89
2018-04-14T05:40:35.156Z,19.92
2018-04-14T05:41:34.944Z,19.89
2018-04-14T05:42:35.072Z,19.89
2018-04-14T05:43:35.147Z,19.93
2018-04-14T05:44:35.094Z,19.93
2018-04-14T05:45:34.949Z,19.95
2018-04-14T05:46:34.981Z,19.93
2018-04-14T05:47:35.088Z,19.96
2018-04-14T05:48:34.867Z,19.92
2018-04-14T05:49:35.097Z,19.96
2018-04-14T05:50:35.089Z,19.99
2018-04-14T05:51:35.079Z,19.98
2018-04-14T05:52:35.358Z,19.96
2018-04-14T05:53:35.045Z,19.99
2018-04-14T05:54:35.201Z,19.96
2018-04-14T05:55:34.963Z,19.99
2018-04-14T05:56:35.024Z,20.02
2018-04-14T05:57:34.887Z,19.98
2018-04-14T05:58:34.963Z,20.01
2018-04-14T05:59:35.017Z,20.05
2018-04-14T06:00:35.050Z,20.02
2018-04-14T06:01:35.004Z,20.02
2018-04-14T06:02:34.917Z,20.04
2018-04-14T06:03:35.206Z,20.01
2018-04-14T06:04:34.961Z,20.04
2018-04-14T06:05:35.095Z,20.05
2018-04-14T06:06:34.885Z,20.01
2018-04-14T06:07:34.999Z,20.07
2018-04-14T06:08:35.001Z,20.05
2018-04-14T06:09:34.910Z,20.01
2018-04-14T06:10:35.075Z,20.05
2018-04-14T06:11:35.174Z,20.07
2018-04-14T06:12:35.064Z,20.02
2018-04-14T06:13:34.971Z,20.05
2018-04-14T06:14:35.092Z,20.05
2018-04-14T06:15:34.934Z,20.02
2018-04-14T06:16:34.850Z,20.02
2018-04-14T06:17:35.002Z,20.04
2018-04-14T06:18:35.070Z,20.02
2018-04-14T06:19:34.871Z,20.05
2018-04-14T06:20:34.956Z,20.04
2018-04-14T06:21:34.995Z,19.98
2018-04-14T06:22:35.024Z,20.05
2018-04-14T06:23:35.035Z,20.01
2018-04-14T06:24:35.032Z,19.98
2018-04-14T06:25:34.856Z,20.01
2018-04-14T06:26:34.930Z,19.99
2018-04-14T06:27:35.022Z,19.96
2018-04-14T06:28:35.048Z,20.01
2018-04-14T06:29:35.011Z,20.01
2018-04-14T06:30:34.888Z,19.95
2018-04-14T06:31:34.961Z,19.98
2018-04-14T06:32:35.362Z,19.99
2018-04-14T06:33:34.987Z,19.91
2018-04-14T06:34:34.976Z,19.96
2018-04-14T06:35:35.060Z,19.99
2018-04-14T06:36:35.034Z,19.92
2018-04-14T06:37:34.898Z,19.96
2018-04-14T06:38:34.919Z,19.96
2018-04-14T06:39:34.990Z,19.92
2018-04-14T06:40:34.846Z,19.95
2018-04-14T06:41:34.954Z,19.96
2018-04-14T06:42:34.953Z,19.91
2018-04-14T06:43:35.224Z,19.95
2018-04-14T06:44:34.960Z,19.93
2018-04-14T06:45:34.975Z,19.89
2018-04-14T06:46:34.994Z,19.92
2018-04-14T06:47:34.875Z,19.93
2018-04-14T06:48:34.944Z,19.86
2018-04-14T06:49:34.957Z,19.92
2018-04-14T06:50:35.058Z,19.91
2018-04-14T06:51:34.923Z,19.88
2018-04-14T06:52:34.810Z,19.89
2018-04-14T06:53:35.093Z,19.91
2018-04-14T06:54:34.973Z,19.84
2018-04-14T06:55:35.096Z,19.85
2018-04-14T06:56:34.960Z,19.89
2018-04-14T06:57:35.062Z,19.82
2018-04-14T06:58:34.822Z,19.86
2018-04-14T06:59:34.992Z,19.86
2018-04-14T07:00:35.207Z,19.81
2018-04-14T07:01:34.980Z,19.84
2018-04-14T07:02:34.970Z,19.86
2018-04-14T07:03:35.053Z,19.81
2018-04-14T07:04:35.215Z,19.82
2018-04-14T07:05:34.923Z,19.82
2018-04-14T07:06:35.068Z,19.8
2018-04-14T07:07:34.930Z,19.81
2018-04-14T07:08:35.049Z,19.82
2018-04-14T07:09:34.859Z,19.77
2018-04-14T07:10:34.946Z,19.8
2018-04-14T07:11:34.922Z,19.8
2018-04-14T07:12:34.842Z,19.73
2018-04-14T07:13:34.927Z,19.77
2018-04-14T07:14:35.085Z,19.77
2018-04-14T07:15:34.919Z,19.73
2018-04-14T07:16:34.883Z,19.74
2018-04-14T07:17:34.994Z,19.75
2018-04-14T07:18:34.929Z,19.68
2018-04-14T07:19:34.820Z,19.75
2018-04-14T07:20:35.156Z,19.75
2018-04-14T07:21:34.927Z,19.67
2018-04-14T07:22:34.902Z,19.75
2018-04-14T07:23:35.001Z,19.77
2018-04-14T07:24:34.910Z,19.67
2018-04-14T07:25:35.190Z,19.71
2018-04-14T07:26:34.848Z,19.73
2018-04-14T07:27:34.928Z,19.67
2018-04-14T07:28:34.917Z,19.7
2018-04-14T07:29:35.073Z,19.71
2018-04-14T07:30:34.928Z,19.63
2018-04-14T07:31:34.961Z,19.67
2018-04-14T07:32:34.965Z,19.7
2018-04-14T07:33:34.969Z,19.61
2018-04-14T07:34:34.819Z,19.67
2018-04-14T07:35:34.857Z,19.67
2018-04-14T07:36:35.037Z,19.58
2018-04-14T07:37:37.345Z,19.65
2018-04-14T07:38:35.071Z,19.7
2018-04-14T07:39:34.980Z,19.6
2018-04-14T07:40:35.098Z,19.63
2018-04-14T07:41:35.064Z,19.65
2018-04-14T07:42:34.926Z,19.57
2018-04-14T07:43:34.934Z,19.61
2018-04-14T07:44:34.812Z,19.63
2018-04-14T07:45:34.920Z,19.53
2018-04-14T07:46:34.948Z,19.61
2018-04-14T07:47:34.909Z,19.63
2018-04-14T07:48:35.001Z,19.54
2018-04-14T07:49:35.039Z,19.57
2018-04-14T07:50:34.976Z,19.58
2018-04-14T07:51:35.006Z,19.5
2018-04-14T07:52:35.186Z,19.57
2018-04-14T07:53:34.962Z,19.58
2018-04-14T07:54:35.063Z,19.47
2018-04-14T07:55:34.893Z,19.56
2018-04-14T07:56:34.905Z,19.57
2018-04-14T07:57:35.024Z,19.47
2018-04-14T07:58:34.884Z,19.53
2018-04-14T07:59:34.992Z,19.54
2018-04-14T08:00:35.036Z,19.45
2018-04-14T08:01:34.902Z,19.52
2018-04-14T08:02:35.011Z,19.53
2018-04-14T08:03:34.801Z,19.42
2018-04-14T08:04:34.879Z,19.47
2018-04-14T08:05:34.807Z,19.53
2018-04-14T08:06:34.927Z,19.4
2018-04-14T08:07:34.970Z,19.47
2018-04-14T08:08:35.066Z,19.5
2018-04-14T08:09:34.853Z,19.4
2018-04-14T08:10:34.872Z,19.47
2018-04-14T08:11:35.278Z,19.47
2018-04-14T08:12:35.071Z,19.39
2018-04-14T08:13:34.991Z,19.43
2018-04-14T08:14:34.959Z,19.45
2018-04-14T08:15:34.879Z,19.36
2018-04-14T08:16:34.994Z,19.42
2018-04-14T08:17:34.838Z,19.46
2018-04-14T08:18:34.806Z,19.33
2018-04-14T08:19:34.808Z,19.42
2018-04-14T08:20:34.889Z,19.4
2018-04-14T08:21:35.049Z,19.35
2018-04-14T08:22:35.028Z,19.36
2018-04-14T08:23:34.849Z,19.43
2018-04-14T08:24:35.008Z,19.3
2018-04-14T08:25:34.810Z,19.33
2018-04-14T08:26:35.113Z,19.36
2018-04-14T08:27:35.098Z,19.29
2018-04-14T08:28:34.921Z,19.35
2018-04-14T08:29:34.923Z,19.37
2018-04-14T08:30:34.877Z,19.26
2018-04-14T08:31:35.017Z,19.33
2018-04-14T08:32:34.849Z,19.33
2018-04-14T08:33:34.776Z,19.26
2018-04-14T08:34:34.917Z,19.33
2018-04-14T08:35:35.092Z,19.33
2018-04-14T08:36:34.824Z,19.25
2018-04-14T08:37:34.934Z,19.32
2018-04-14T08:38:35.011Z,19.32
2018-04-14T08:39:34.995Z,19.25
2018-04-14T08:40:34.860Z,19.26
2018-04-14T08:41:35.016Z,19.29
2018-04-14T08:42:34.874Z,19.25
2018-04-14T08:43:35.084Z,19.27
2018-04-14T08:44:35.058Z,19.3
2018-04-14T08:45:34.857Z,19.22
2018-04-14T08:46:34.898Z,19.25
2018-04-14T08:47:35.633Z,19.27
2018-04-14T08:48:34.913Z,19.2
2018-04-14T08:49:34.868Z,19.25
2018-04-14T08:50:34.904Z,19.27
2018-04-14T08:51:34.990Z,19.19
2018-04-14T08:52:35.033Z,19.23
2018-04-14T08:53:34.871Z,19.26
2018-04-14T08:54:35.008Z,19.18
2018-04-14T08:55:34.934Z,19.22
2018-04-14T08:56:34.848Z,19.26
2018-04-14T08:57:34.952Z,19.19
2018-04-14T08:58:34.856Z,19.2
2018-04-14T08:59:34.848Z,19.23
2018-04-14T09:00:34.924Z,19.15
2018-04-14T09:01:34.856Z,19.23
2018-04-14T09:02:35.015Z,19.2
2018-04-14T09:03:35.009Z,19.13
2018-04-14T09:04:34.913Z,19.19
2018-04-14T09:05:35.031Z,19.22
2018-04-14T09:06:34.923Z,19.16
2018-04-14T09:07:34.888Z,19.19
2018-04-14T09:08:35.031Z,19.25
2018-04-14T09:09:35.041Z,19.18
2018-04-14T09:10:34.821Z,19.23
2018-04-14T09:11:34.889Z,19.26
2018-04-14T09:12:34.942Z,19.2
2018-04-14T09:13:34.842Z,19.23
2018-04-14T09:14:34.967Z,19.29
2018-04-14T09:15:34.810Z,19.25
2018-04-14T09:16:34.902Z,19.3
2018-04-14T09:17:35.002Z,19.3
2018-04-14T09:18:34.807Z,19.29
2018-04-14T09:19:34.838Z,19.32
2018-04-14T09:20:34.997Z,19.35
2018-04-14T09:21:34.854Z,19.29
2018-04-14T09:22:34.817Z,19.33
2018-04-14T09:23:35.051Z,19.32
2018-04-14T09:24:34.833Z,19.29
2018-04-14T09:25:34.922Z,19.33
2018-04-14T09:26:34.943Z,19.36
2018-04-14T09:27:34.878Z,19.36
2018-04-14T09:28:35.024Z,19.39
2018-04-14T09:29:34.781Z,19.37
2018-04-14T09:30:34.905Z,19.35
2018-04-14T09:31:34.889Z,19.37
2018-04-14T09:32:34.943Z,19.4
2018-04-14T09:33:35.035Z,19.32
2018-04-14T09:34:35.046Z,19.37
2018-04-14T09:35:34.875Z,19.4
2018-04-14T09:36:35.045Z,19.35
2018-04-14T09:37:34.854Z,19.33
2018-04-14T09:38:34.918Z,19.37
2018-04-14T09:39:34.859Z,19.32
2018-04-14T09:40:34.835Z,19.37
2018-04-14T09:41:34.964Z,19.37
2018-04-14T09:42:34.962Z,19.3
2018-04-14T09:43:34.861Z,19.36
2018-04-14T09:44:34.938Z,19.37
2018-04-14T09:45:35.013Z,19.33
2018-04-14T09:46:34.914Z,19.33
2018-04-14T09:47:34.997Z,19.36
2018-04-14T09:48:34.954Z,19.3
2018-04-14T09:49:34.918Z,19.33
2018-04-14T09:50:34.922Z,19.36
2018-04-14T09:51:34.868Z,19.29
2018-04-14T09:52:34.855Z,19.33
2018-04-14T09:53:34.842Z,19.33
2018-04-14T09:54:36.267Z,19.29
2018-04-14T09:55:34.846Z,19.3
2018-04-14T09:56:34.965Z,19.33
2018-04-14T09:57:34.804Z,19.23
2018-04-14T09:58:35.016Z,19.29
2018-04-14T09:59:34.906Z,19.32
2018-04-14T10:00:34.827Z,19.19
2018-04-14T10:01:34.866Z,19.23
2018-04-14T10:02:34.915Z,19.26
2018-04-14T10:03:35.108Z,19.19
2018-04-14T10:04:34.945Z,19.22
2018-04-14T10:05:34.924Z,19.25
2018-04-14T10:06:35.090Z,19.13
2018-04-14T10:07:34.899Z,19.19
2018-04-14T10:08:34.969Z,19.23
2018-04-14T10:09:35.043Z,19.13
2018-04-14T10:10:35.252Z,19.16
2018-04-14T10:11:34.778Z,19.22
2018-04-14T10:12:34.912Z,19.11
2018-04-14T10:13:35.152Z,19.15
2018-04-14T10:14:34.826Z,19.2
2018-04-14T10:15:35.056Z,19.13
2018-04-14T10:16:34.923Z,19.13
2018-04-14T10:17:34.905Z,19.19
2018-04-14T10:18:34.858Z,19.12
2018-04-14T10:19:34.893Z,19.16
2018-04-14T10:20:34.959Z,19.15
2018-04-14T10:21:35.079Z,19.08
2018-04-14T10:22:34.795Z,19.13
2018-04-14T10:23:34.967Z,19.18
2018-04-14T10:24:34.848Z,19.08
2018-04-14T10:25:34.845Z,19.12
2018-04-14T10:26:34.796Z,19.16
2018-04-14T10:27:34.885Z,19.08
2018-04-14T10:28:35.112Z,19.12
2018-04-14T10:29:34.995Z,19.18
2018-04-14T10:30:34.835Z,19.08
2018-04-14T10:31:34.946Z,19.09
2018-04-14T10:32:34.839Z,19.13
2018-04-14T10:33:34.820Z,19.02
2018-04-14T10:34:34.898Z,19.09
2018-04-14T10:35:34.995Z,19.11
2018-04-14T10:36:34.739Z,19.01
2018-04-14T10:37:34.933Z,19.08
2018-04-14T10:38:35.056Z,19.12
2018-04-14T10:39:34.777Z,19.01
2018-04-14T10:40:34.842Z,19.06
2018-04-14T10:41:35.003Z,19.09
2018-04-14T10:42:34.792Z,19.01
2018-04-14T10:43:35.040Z,19.06
2018-04-14T10:44:34.833Z,19.11
2018-04-14T10:45:34.904Z,19.02
2018-04-14T10:46:35.043Z,19.03
2018-04-14T10:47:34.956Z,19.09
2018-04-14T10:48:34.954Z,19.01
2018-04-14T10:49:35.018Z,19.05
2018-04-14T10:50:34.982Z,19.08
2018-04-14T10:51:34.833Z,18.99
2018-04-14T10:52:35.014Z,19.05
2018-04-14T10:53:34.870Z,19.05
2018-04-14T10:54:35.033Z,18.98
2018-04-14T10:55:34.846Z,19.01
2018-04-14T10:56:34.861Z,19.08
2018-04-14T10:57:34.878Z,18.98
2018-04-14T10:58:34.928Z,19.01
2018-04-14T10:59:35.005Z,19.05
2018-04-14T11:00:34.822Z,18.97
2018-04-14T11:01:35.050Z,19.03
2018-04-14T11:02:34.971Z,19.05
2018-04-14T11:03:34.783Z,19.01
2018-04-14T11:04:35.051Z,19.02
2018-04-14T11:05:35.048Z,19.06
2018-04-14T11:06:34.833Z,19.05
2018-04-14T11:07:34.849Z,19.06
2018-04-14T11:08:34.934Z,19.12
2018-04-14T11:09:35.050Z,19.05
2018-04-14T11:10:34.800Z,19.11
2018-04-14T11:11:34.958Z,19.15
2018-04-14T11:12:34.843Z,19.11
2018-04-14T11:13:34.978Z,19.13
2018-04-14T11:14:35.135Z,19.15
2018-04-14T11:15:34.770Z,19.12
2018-04-14T11:16:34.822Z,19.16
2018-04-14T11:17:34.912Z,19.16
2018-04-14T11:18:34.950Z,19.15
2018-04-14T11:19:34.896Z,19.19
2018-04-14T11:20:35.342Z,19.22
2018-04-14T11:21:34.841Z,19.16
2018-04-14T11:22:34.845Z,19.19
2018-04-14T11:23:34.896Z,19.19
2018-04-14T11:24:35.042Z,19.13
2018-04-14T11:25:34.999Z,19.19
2018-04-14T11:26:34.842Z,19.16
2018-04-14T11:27:34.952Z,19.13
2018-04-14T11:28:34.989Z,19.18
2018-04-14T11:29:35.012Z,19.19
2018-04-14T11:30:34.974Z,19.13
2018-04-14T11:31:34.851Z,19.18
2018-04-14T11:32:34.841Z,19.18
2018-04-14T11:33:34.952Z,19.12
2018-04-14T11:34:34.816Z,19.15
2018-04-14T11:35:34.784Z,19.18
2018-04-14T11:36:34.747Z,19.12
2018-04-14T11:37:34.757Z,19.13
2018-04-14T11:38:34.750Z,19.15
2018-04-14T11:39:34.905Z,19.09
2018-04-14T11:40:34.900Z,19.15
2018-04-14T11:41:34.901Z,19.15
2018-04-14T11:42:34.878Z,19.09
2018-04-14T11:43:34.781Z,19.11
2018-04-14T11:44:35.013Z,19.12
2018-04-14T11:45:34.741Z,19.09
2018-04-14T11:46:34.767Z,19.13
2018-04-14T11:47:34.935Z,19.13
2018-04-14T11:48:34.940Z,19.09
2018-04-14T11:49:34.764Z,19.13
2018-04-14T11:50:34.896Z,19.13
2018-04-14T11:51:34.827Z,19.06
2018-04-14T11:52:34.841Z,19.12
2018-04-14T11:53:34.759Z,19.15
2018-04-14T11:54:34.894Z,19.05
2018-04-14T11:55:34.997Z,19.08
2018-04-14T11:56:34.755Z,19.12
2018-04-14T11:57:34.900Z,19.01
2018-04-14T11:58:34.916Z,19.03
2018-04-14T11:59:35.126Z,19.08
2018-04-14T12:00:34.774Z,18.98
2018-04-14T12:01:34.891Z,19.03
2018-04-14T12:02:34.944Z,19.09
2018-04-14T12:03:34.732Z,18.98
2018-04-14T12:04:34.980Z,19.03
2018-04-14T12:05:34.985Z,19.06
2018-04-14T12:06:34.879Z,18.95
2018-04-14T12:07:34.885Z,19.01
2018-04-14T12:08:34.964Z,19.01
2018-04-14T12:09:34.769Z,18.94
2018-04-14T12:10:34.850Z,19.01
2018-04-14T12:11:34.803Z,19.02
2018-04-14T12:12:34.877Z,18.95
2018-04-14T12:13:34.912Z,18.99
2018-04-14T12:14:36.981Z,19.02
2018-04-14T12:15:34.836Z,18.94
2018-04-14T12:16:34.999Z,18.97
2018-04-14T12:17:34.783Z,19.03
2018-04-14T12:18:35.264Z,18.94
2018-04-14T12:19:34.806Z,18.98
2018-04-14T12:20:34.809Z,18.98
2018-04-14T12:21:34.955Z,18.91
2018-04-14T12:22:34.757Z,18.97
2018-04-14T12:23:35.005Z,18.95
2018-04-14T12:24:34.867Z,18.91
2018-04-14T12:25:34.867Z,18.98
2018-04-14T12:26:34.848Z,18.98
2018-04-14T12:27:34.903Z,18.92
2018-04-14T12:28:34.753Z,18.97
2018-04-14T12:29:34.833Z,19.01
2018-04-14T12:30:34.973Z,18.9
2018-04-14T12:31:34.859Z,18.94
2018-04-14T12:32:34.753Z,18.98
2018-04-14T12:33:34.956Z,18.88
2018-04-14T12:34:35.942Z,18.95
2018-04-14T12:35:34.921Z,18.95
2018-04-14T12:36:34.974Z,18.88
2018-04-14T12:37:34.956Z,18.92
2018-04-14T12:38:34.728Z,18.97
2018-04-14T12:39:34.881Z,18.88
2018-04-14T12:40:34.987Z,18.95
2018-04-14T12:41:35.005Z,18.97
2018-04-14T12:42:34.920Z,18.88
2018-04-14T12:43:34.897Z,18.91
2018-04-14T12:44:34.794Z,18.94
2018-04-14T12:45:34.959Z,18.87
2018-04-14T12:46:34.735Z,18.92
2018-04-14T12:47:34.923Z,18.97
2018-04-14T12:48:34.881Z,18.87
2018-04-14T12:49:34.779Z,18.91
2018-04-14T12:50:34.858Z,18.94
2018-04-14T12:51:34.876Z,18.9
2018-04-14T12:52:34.866Z,18.91
2018-04-14T12:53:34.755Z,18.94
2018-04-14T12:54:34.902Z,18.84